EDW2AS GVAC-GVBA
Flight info
| Callsign | EDW2AS |
|---|---|
| Flight time | 0h 19m |
| Altitude | 11000 |
| Route | BA505 DCT BA503 |
| Aircraft | A320/M-SDE3FGHIRWY/LB1 |
Departure
| Time | 2026-04-22 18:41 |
|---|---|
| Airport | Amílcar Cabral International Airport (GVAC) |
Arrival
| Time | 2026-04-22 19:00 |
|---|---|
| Airport | Aristides Pereira International Airport (GVBA) |
| Time | Latitude | Longitude | Altitude | Speed | Heading |
|---|---|---|---|---|---|
| 2026-04-22 18:24 | 16.73235 | -22.94490 | 184 ft | 0 kts | 90° |
| 2026-04-22 18:34 | 16.73235 | -22.94510 | 187 ft | 4 kts | 91° |
| 2026-04-22 18:34 | 16.73237 | -22.94538 | 192 ft | 4 kts | 95° |
| 2026-04-22 18:34 | 16.73241 | -22.94565 | 201 ft | 4 kts | 105° |
| 2026-04-22 18:34 | 16.73251 | -22.94589 | 199 ft | 4 kts | 144° |
| 2026-04-22 18:35 | 16.73261 | -22.94595 | 197 ft | 0 kts | 180° |
| 2026-04-22 18:37 | 16.73255 | -22.94595 | 199 ft | 4 kts | 179° |
| 2026-04-22 18:37 | 16.73146 | -22.94594 | 184 ft | 13 kts | 179° |
| 2026-04-22 18:38 | 16.73079 | -22.94614 | 196 ft | 10 kts | 231° |
| 2026-04-22 18:38 | 16.73048 | -22.94670 | 194 ft | 8 kts | 239° |
| 2026-04-22 18:38 | 16.72985 | -22.94692 | 188 ft | 19 kts | 176° |
| 2026-04-22 18:39 | 16.72716 | -22.94690 | 188 ft | 18 kts | 179° |
| 2026-04-22 18:39 | 16.72598 | -22.94689 | 184 ft | 16 kts | 179° |
| 2026-04-22 18:39 | 16.72490 | -22.94688 | 183 ft | 15 kts | 181° |
| 2026-04-22 18:39 | 16.72409 | -22.94724 | 183 ft | 13 kts | 254° |
| 2026-04-22 18:40 | 16.72408 | -22.94814 | 182 ft | 12 kts | 269° |
| 2026-04-22 18:40 | 16.72413 | -22.94880 | 182 ft | 4 kts | 311° |
| 2026-04-22 18:40 | 16.72458 | -22.94886 | 183 ft | 16 kts | 360° |
| 2026-04-22 18:40 | 16.72816 | -22.94888 | 183 ft | 86 kts | 360° |
| 2026-04-22 18:41 | 16.73610 | -22.94892 | 183 ft | 140 kts | 359° |
| 2026-04-22 18:41 | 16.74706 | -22.94901 | 435 ft | 164 kts | 2° |
| 2026-04-22 18:41 | 16.75850 | -22.94905 | 1118 ft | 164 kts | 0° |
| 2026-04-22 18:41 | 16.77029 | -22.94915 | 1631 ft | 179 kts | 359° |
| 2026-04-22 18:42 | 16.78340 | -22.94929 | 1971 ft | 198 kts | 360° |
| 2026-04-22 18:42 | 16.79788 | -22.94844 | 2432 ft | 222 kts | 15° |
| 2026-04-22 18:42 | 16.81116 | -22.93925 | 3068 ft | 244 kts | 53° |
| 2026-04-22 18:42 | 16.81631 | -22.92204 | 3741 ft | 264 kts | 89° |
| 2026-04-22 18:43 | 16.81061 | -22.90330 | 4385 ft | 280 kts | 127° |
| 2026-04-22 18:43 | 16.79565 | -22.89042 | 5129 ft | 282 kts | 158° |
| 2026-04-22 18:43 | 16.77723 | -22.88342 | 5930 ft | 283 kts | 168° |
| 2026-04-22 18:43 | 16.75842 | -22.87765 | 6745 ft | 283 kts | 170° |
| 2026-04-22 18:44 | 16.73935 | -22.87215 | 7562 ft | 284 kts | 170° |
| 2026-04-22 18:44 | 16.72025 | -22.86672 | 8395 ft | 285 kts | 170° |
| 2026-04-22 18:44 | 16.70110 | -22.86125 | 9227 ft | 286 kts | 170° |
| 2026-04-22 18:44 | 16.68211 | -22.85579 | 10038 ft | 287 kts | 170° |
| 2026-04-22 18:45 | 16.66226 | -22.85008 | 10374 ft | 307 kts | 170° |
| 2026-04-22 18:45 | 16.64086 | -22.84395 | 10552 ft | 330 kts | 169° |
| 2026-04-22 18:45 | 16.61824 | -22.83739 | 10881 ft | 344 kts | 169° |
| 2026-04-22 18:45 | 16.59503 | -22.83056 | 10984 ft | 353 kts | 169° |
| 2026-04-22 18:46 | 16.57076 | -22.82341 | 11003 ft | 368 kts | 168° |
| 2026-04-22 18:46 | 16.54599 | -22.81610 | 11004 ft | 370 kts | 168° |
| 2026-04-22 18:46 | 16.52128 | -22.80878 | 11005 ft | 371 kts | 168° |
| 2026-04-22 18:46 | 16.49640 | -22.80143 | 11004 ft | 371 kts | 168° |
| 2026-04-22 18:47 | 16.47148 | -22.79408 | 11005 ft | 371 kts | 168° |
| 2026-04-22 18:47 | 16.44674 | -22.78683 | 11005 ft | 371 kts | 168° |
| 2026-04-22 18:47 | 16.42180 | -22.77954 | 10992 ft | 371 kts | 168° |
| 2026-04-22 18:47 | 16.39708 | -22.77229 | 10991 ft | 370 kts | 168° |
| 2026-04-22 18:48 | 16.37247 | -22.76508 | 11001 ft | 370 kts | 168° |
| 2026-04-22 18:48 | 16.34765 | -22.75782 | 10992 ft | 370 kts | 168° |
| 2026-04-22 18:48 | 16.32292 | -22.75058 | 10993 ft | 370 kts | 168° |
| 2026-04-22 18:48 | 16.29806 | -22.74412 | 10979 ft | 360 kts | 174° |
| 2026-04-22 18:49 | 16.27386 | -22.74230 | 10872 ft | 339 kts | 185° |
| 2026-04-22 18:49 | 16.25089 | -22.74511 | 10587 ft | 327 kts | 195° |
| 2026-04-22 18:49 | 16.22926 | -22.75144 | 10169 ft | 321 kts | 200° |
| 2026-04-22 18:49 | 16.20799 | -22.75812 | 9879 ft | 314 kts | 199° |
| 2026-04-22 18:50 | 16.18755 | -22.76448 | 9765 ft | 301 kts | 200° |
| 2026-04-22 18:50 | 16.16794 | -22.77055 | 9639 ft | 289 kts | 200° |
| 2026-04-22 18:50 | 16.14895 | -22.77641 | 9513 ft | 278 kts | 200° |
| 2026-04-22 18:50 | 16.13073 | -22.78207 | 9280 ft | 271 kts | 200° |
| 2026-04-22 18:51 | 16.11273 | -22.78768 | 8929 ft | 269 kts | 200° |
| 2026-04-22 18:51 | 16.09498 | -22.79324 | 8542 ft | 269 kts | 200° |
| 2026-04-22 18:51 | 16.07705 | -22.79886 | 8134 ft | 269 kts | 200° |
| 2026-04-22 18:51 | 16.05906 | -22.80448 | 7737 ft | 269 kts | 200° |
| 2026-04-22 18:52 | 16.04124 | -22.81003 | 7363 ft | 268 kts | 200° |
| 2026-04-22 18:52 | 16.02334 | -22.81559 | 6979 ft | 267 kts | 200° |
| 2026-04-22 18:52 | 16.00550 | -22.82114 | 6588 ft | 267 kts | 201° |
| 2026-04-22 18:52 | 15.98774 | -22.82667 | 6179 ft | 267 kts | 201° |
| 2026-04-22 18:53 | 15.96999 | -22.83215 | 5785 ft | 266 kts | 200° |
| 2026-04-22 18:53 | 15.95217 | -22.83766 | 5325 ft | 266 kts | 200° |
| 2026-04-22 18:53 | 15.93462 | -22.84308 | 5062 ft | 260 kts | 201° |
| 2026-04-22 18:53 | 15.91908 | -22.85158 | 4819 ft | 246 kts | 226° |
| 2026-04-22 18:54 | 15.90971 | -22.86564 | 4568 ft | 234 kts | 252° |
| 2026-04-22 18:54 | 15.90752 | -22.88197 | 4321 ft | 226 kts | 277° |
| 2026-04-22 18:54 | 15.91133 | -22.89759 | 4090 ft | 222 kts | 288° |
| 2026-04-22 18:54 | 15.91580 | -22.91279 | 3841 ft | 219 kts | 288° |
| 2026-04-22 18:55 | 15.92013 | -22.92772 | 3594 ft | 216 kts | 289° |
| 2026-04-22 18:55 | 15.92623 | -22.94161 | 3348 ft | 209 kts | 316° |
| 2026-04-22 18:55 | 15.93855 | -22.94833 | 3142 ft | 200 kts | 355° |
| 2026-04-22 18:55 | 15.95196 | -22.94581 | 2950 ft | 197 kts | 18° |
| 2026-04-22 18:56 | 15.96490 | -22.94146 | 2750 ft | 194 kts | 16° |
| 2026-04-22 18:56 | 15.97770 | -22.93756 | 2584 ft | 190 kts | 15° |
| 2026-04-22 18:56 | 15.99036 | -22.93376 | 2498 ft | 188 kts | 16° |
| 2026-04-22 18:56 | 16.00280 | -22.92999 | 2527 ft | 180 kts | 16° |
| 2026-04-22 18:57 | 16.01431 | -22.92649 | 2442 ft | 168 kts | 16° |
| 2026-04-22 18:57 | 16.02553 | -22.92307 | 2188 ft | 166 kts | 16° |
| 2026-04-22 18:57 | 16.03631 | -22.91978 | 1965 ft | 161 kts | 15° |
| 2026-04-22 18:57 | 16.04691 | -22.91652 | 1750 ft | 153 kts | 16° |
| 2026-04-22 18:58 | 16.05676 | -22.91347 | 1576 ft | 140 kts | 17° |
| 2026-04-22 18:58 | 16.06592 | -22.91064 | 1377 ft | 135 kts | 15° |
| 2026-04-22 18:58 | 16.07503 | -22.90792 | 1187 ft | 135 kts | 17° |
| 2026-04-22 18:58 | 16.08385 | -22.90526 | 979 ft | 132 kts | 17° |
| 2026-04-22 18:59 | 16.09266 | -22.90246 | 793 ft | 130 kts | 15° |
| 2026-04-22 18:59 | 16.10118 | -22.89988 | 659 ft | 129 kts | 17° |
| 2026-04-22 18:59 | 16.11018 | -22.89705 | 463 ft | 136 kts | 19° |
| 2026-04-22 18:59 | 16.11901 | -22.89430 | 289 ft | 131 kts | 18° |
| 2026-04-22 19:00 | 16.12477 | -22.89245 | 173 ft | 127 kts | 18° |
| 2026-04-22 19:00 | 16.13531 | -22.88924 | 49 ft | 89 kts | 17° |
| 2026-04-22 19:00 | 16.13919 | -22.88801 | 58 ft | 46 kts | 17° |
| 2026-04-22 19:00 | 16.14187 | -22.88716 | 57 ft | 36 kts | 17° |
| 2026-04-22 19:01 | 16.14411 | -22.88650 | 66 ft | 30 kts | 14° |
| 2026-04-22 19:01 | 16.14581 | -22.88597 | 64 ft | 19 kts | 22° |
| 2026-04-22 19:01 | 16.14626 | -22.88587 | 63 ft | 5 kts | 319° |
| 2026-04-22 19:01 | 16.14602 | -22.88602 | 64 ft | 12 kts | 182° |
| 2026-04-22 19:02 | 16.14441 | -22.88643 | 64 ft | 32 kts | 197° |
| 2026-04-22 19:02 | 16.14222 | -22.88710 | 58 ft | 34 kts | 196° |
| 2026-04-22 19:02 | 16.13988 | -22.88783 | 60 ft | 37 kts | 197° |
| 2026-04-22 19:02 | 16.13739 | -22.88859 | 55 ft | 33 kts | 195° |
| 2026-04-22 19:03 | 16.13621 | -22.88899 | 64 ft | 10 kts | 220° |
| 2026-04-22 19:03 | 16.13619 | -22.88966 | 52 ft | 9 kts | 287° |
| 2026-04-22 19:03 | 16.13627 | -22.88996 | 53 ft | 8 kts | 281° |
| 2026-04-22 19:03 | 16.13648 | -22.89071 | 50 ft | 10 kts | 287° |
| 2026-04-22 19:04 | 16.13654 | -22.89091 | 51 ft | 0 kts | 286° |